createdAt,value
2018-05-27T00:03:50.792Z,1014.08
2018-05-27T00:08:47.558Z,1014.09
2018-05-27T00:13:43.001Z,1013.92
2018-05-27T00:18:38.579Z,1013.91
2018-05-27T00:23:34.462Z,1013.80
2018-05-27T00:28:31.301Z,1013.82
2018-05-27T00:33:27.139Z,1013.74
2018-05-27T00:38:23.238Z,1013.86
2018-05-27T00:43:19.247Z,1013.85
2018-05-27T00:48:15.177Z,1013.80
2018-05-27T00:53:10.969Z,1013.78
2018-05-27T00:58:06.687Z,1013.78
2018-05-27T01:03:03.709Z,1013.68
2018-05-27T01:08:00.526Z,1013.70
2018-05-27T01:12:56.433Z,1013.68
2018-05-27T01:17:53.203Z,1013.71
2018-05-27T01:22:50.405Z,1013.55
2018-05-27T01:27:46.934Z,1013.53
2018-05-27T01:32:42.581Z,1013.59
2018-05-27T01:37:39.562Z,1013.58
2018-05-27T01:42:35.071Z,1013.54
2018-05-27T01:47:31.525Z,1013.61
2018-05-27T01:52:27.278Z,1013.44
2018-05-27T01:57:23.160Z,1013.47
2018-05-27T02:02:19.205Z,1013.33
2018-05-27T02:07:15.911Z,1013.42
2018-05-27T02:12:12.109Z,1013.28
2018-05-27T02:17:07.883Z,1013.30
2018-05-27T02:22:03.603Z,1013.24
2018-05-27T02:26:59.346Z,1013.26
2018-05-27T02:31:55.222Z,1013.31
2018-05-27T02:36:51.025Z,1013.36
2018-05-27T02:41:47.944Z,1013.31
2018-05-27T02:46:44.531Z,1013.34
2018-05-27T02:51:39.836Z,1013.33
2018-05-27T02:56:35.858Z,1013.37
2018-05-27T03:01:31.917Z,1013.44
2018-05-27T03:06:27.716Z,1013.44
2018-05-27T03:11:24.612Z,1013.43
2018-05-27T03:16:21.548Z,1013.38
2018-05-27T03:21:17.150Z,1013.49
2018-05-27T03:26:13.379Z,1013.47
2018-05-27T03:31:10.117Z,1013.39
2018-05-27T03:36:05.526Z,1013.40
2018-05-27T03:41:01.547Z,1013.34
2018-05-27T03:45:57.657Z,1013.42
2018-05-27T03:50:54.719Z,1013.35
2018-05-27T03:55:50.429Z,1013.37
2018-05-27T04:00:46.020Z,1013.43
2018-05-27T04:05:42.969Z,1013.36
2018-05-27T04:10:38.908Z,1013.34
2018-05-27T04:15:34.896Z,1013.28
2018-05-27T04:20:31.548Z,1013.30
2018-05-27T04:25:28.076Z,1013.23
2018-05-27T04:30:23.866Z,1013.30
2018-05-27T04:35:21.599Z,1013.33
2018-05-27T04:40:17.694Z,1013.07
2018-05-27T04:45:14.234Z,1013.23
2018-05-27T04:50:11.150Z,1013.24
2018-05-27T04:55:07.314Z,1013.17
2018-05-27T05:00:05.269Z,1013.09
2018-05-27T05:05:01.517Z,1013.07
2018-05-27T05:09:58.201Z,1013.16
2018-05-27T05:14:55.140Z,1013.09
2018-05-27T05:19:51.239Z,1013.11
2018-05-27T05:24:46.908Z,1013.22
2018-05-27T05:29:42.659Z,1013.27
2018-05-27T05:34:38.789Z,1013.30
2018-05-27T05:39:35.659Z,1013.35
2018-05-27T05:44:32.417Z,1013.36
2018-05-27T05:49:29.039Z,1013.37
2018-05-27T05:54:24.569Z,1013.37
2018-05-27T05:59:20.295Z,1013.39
2018-05-27T06:04:17.012Z,1013.48
2018-05-27T06:09:12.224Z,1013.60
2018-05-27T06:14:13.570Z,1013.52
2018-05-27T06:19:08.411Z,1013.54
2018-05-27T06:24:04.340Z,1013.40
2018-05-27T06:29:01.807Z,1013.53
2018-05-27T06:33:57.361Z,1013.46
2018-05-27T06:38:53.283Z,1013.53
2018-05-27T06:43:49.084Z,1013.47
2018-05-27T06:48:45.382Z,1013.44
2018-05-27T06:53:41.557Z,1013.44
2018-05-27T06:58:37.905Z,1013.42
2018-05-27T07:03:33.911Z,1013.48
2018-05-27T07:08:29.955Z,1013.42
2018-05-27T07:13:27.065Z,1013.43
2018-05-27T07:18:24.014Z,1013.37
2018-05-27T07:23:19.802Z,1013.35
2018-05-27T07:28:16.066Z,1013.36
2018-05-27T07:33:12.335Z,1013.32
2018-05-27T07:38:09.041Z,1013.30
2018-05-27T07:43:05.351Z,1013.22
2018-05-27T07:48:01.849Z,1013.35
2018-05-27T07:53:01.505Z,1013.32
2018-05-27T07:57:59.744Z,1013.25
2018-05-27T08:02:58.549Z,1013.18
2018-05-27T08:07:55.876Z,1013.27
2018-05-27T08:12:52.758Z,1013.20
2018-05-27T08:17:49.894Z,1013.17
2018-05-27T08:22:45.499Z,1013.08
2018-05-27T08:27:42.042Z,1013.01
2018-05-27T08:32:39.422Z,1013.02
2018-05-27T08:37:35.768Z,1013.02
2018-05-27T08:42:32.816Z,1012.99
2018-05-27T08:47:30.875Z,1012.91
2018-05-27T08:52:27.233Z,1012.93
2018-05-27T08:57:24.050Z,1012.92
2018-05-27T09:02:20.025Z,1012.92
2018-05-27T09:07:15.806Z,1013.01
2018-05-27T09:12:11.457Z,1013.04
2018-05-27T09:17:07.521Z,1013.02
2018-05-27T09:22:04.125Z,1012.99
2018-05-27T09:27:00.459Z,1013.07
2018-05-27T09:31:56.241Z,1012.92
2018-05-27T09:36:53.202Z,1013.13
2018-05-27T09:41:49.291Z,1013.14
2018-05-27T09:46:45.090Z,1013.05
2018-05-27T09:51:42.618Z,1013.01
2018-05-27T09:56:39.320Z,1013.05
2018-05-27T10:01:36.654Z,1012.88
2018-05-27T10:06:33.009Z,1012.92
2018-05-27T10:11:30.446Z,1012.93
2018-05-27T10:16:26.268Z,1012.79
2018-05-27T10:21:22.578Z,1012.81
2018-05-27T10:26:18.203Z,1012.76
2018-05-27T10:31:14.217Z,1012.73
2018-05-27T10:36:10.011Z,1012.59
2018-05-27T10:41:08.048Z,1012.62
2018-05-27T10:46:06.281Z,1012.50
2018-05-27T10:51:02.003Z,1012.45
2018-05-27T10:55:58.893Z,1012.45
2018-05-27T11:00:57.044Z,1012.40
2018-05-27T11:05:53.838Z,1012.36
2018-05-27T11:10:49.826Z,1012.17
2018-05-27T11:15:46.904Z,1012.08
2018-05-27T11:20:42.847Z,1012.10
2018-05-27T11:25:38.227Z,1011.94
2018-05-27T11:30:35.097Z,1011.90
2018-05-27T11:35:30.652Z,1011.94
2018-05-27T11:40:25.741Z,1011.84
2018-05-27T11:45:20.155Z,1011.93
2018-05-27T11:50:18.738Z,1011.81
2018-05-27T11:55:12.900Z,1011.78
2018-05-27T12:00:08.959Z,1011.79
2018-05-27T12:05:06.064Z,1011.76
2018-05-27T12:10:05.000Z,1011.69
2018-05-27T12:15:00.758Z,1011.71
2018-05-27T12:19:56.930Z,1011.67
2018-05-27T12:24:53.669Z,1011.46
2018-05-27T12:29:47.330Z,1011.51
2018-05-27T12:34:42.033Z,1011.43
2018-05-27T12:39:37.876Z,1011.41
2018-05-27T12:44:33.015Z,1011.41
2018-05-27T12:49:29.980Z,1011.36
2018-05-27T12:54:25.731Z,1011.31
2018-05-27T12:59:21.360Z,1011.26
2018-05-27T13:04:18.518Z,1011.25
2018-05-27T13:09:17.224Z,1011.24
2018-05-27T13:14:14.918Z,1011.08
2018-05-27T13:19:10.631Z,1010.90
2018-05-27T13:24:07.489Z,1010.73
2018-05-27T13:29:03.493Z,1010.74
2018-05-27T13:33:59.117Z,1010.71
2018-05-27T13:38:53.752Z,1010.87
2018-05-27T13:43:48.184Z,1010.93
2018-05-27T13:48:43.494Z,1010.82
2018-05-27T13:53:39.210Z,1010.83
2018-05-27T13:58:34.663Z,1010.77
2018-05-27T14:03:30.195Z,1010.82
2018-05-27T14:08:25.839Z,1010.74
2018-05-27T14:13:22.604Z,1010.63
2018-05-27T14:18:19.311Z,1010.70
2018-05-27T14:23:14.915Z,1010.56
2018-05-27T14:28:10.983Z,1010.70
2018-05-27T14:33:08.166Z,1010.60
2018-05-27T14:38:04.449Z,1010.59
2018-05-27T14:43:00.549Z,1010.62
2018-05-27T14:52:56.919Z,1010.55
2018-05-27T14:57:52.899Z,1010.59
2018-05-27T15:02:49.042Z,1010.65
2018-05-27T15:07:45.240Z,1010.52
2018-05-27T15:12:41.284Z,1010.66
2018-05-27T15:17:36.875Z,1011.06
2018-05-27T15:22:33.309Z,1011.21
2018-05-27T15:27:29.454Z,1011.15
2018-05-27T15:32:24.800Z,1011.17
2018-05-27T15:37:21.498Z,1011.14
2018-05-27T15:42:16.999Z,1011.07
2018-05-27T15:47:13.071Z,1011.07
2018-05-27T15:52:08.895Z,1011.03
2018-05-27T15:57:04.791Z,1010.92
2018-05-27T16:02:00.715Z,1010.95
2018-05-27T16:06:57.910Z,1010.92
2018-05-27T16:11:54.696Z,1010.92
2018-05-27T16:16:50.390Z,1010.73
2018-05-27T16:21:47.754Z,1010.76
2018-05-27T16:26:43.995Z,1010.84
2018-05-27T16:31:40.491Z,1010.94
2018-05-27T16:36:37.364Z,1010.94
2018-05-27T16:41:32.902Z,1011.01
2018-05-27T16:46:28.547Z,1011.09
2018-05-27T16:51:24.593Z,1011.00
2018-05-27T16:56:21.467Z,1010.98
2018-05-27T17:01:17.541Z,1010.92
2018-05-27T17:06:13.320Z,1010.99
2018-05-27T17:11:09.224Z,1010.94
2018-05-27T17:16:05.368Z,1010.92
2018-05-27T17:21:02.509Z,1010.92
2018-05-27T17:25:59.173Z,1010.77
2018-05-27T17:30:55.840Z,1010.63
2018-05-27T17:35:51.797Z,1010.54
2018-05-27T17:40:48.000Z,1010.44
2018-05-27T17:45:45.102Z,1010.40
2018-05-27T17:50:42.036Z,1010.31
2018-05-27T17:55:37.918Z,1010.36
2018-05-27T18:00:35.372Z,1010.29
2018-05-27T18:05:31.025Z,1010.32
2018-05-27T18:10:27.801Z,1010.42
2018-05-27T18:15:23.607Z,1010.49
2018-05-27T18:20:19.552Z,1010.69
2018-05-27T18:25:15.622Z,1010.87
2018-05-27T18:30:11.497Z,1011.13
2018-05-27T18:35:07.312Z,1011.11
2018-05-27T18:40:02.937Z,1011.25
2018-05-27T18:45:00.066Z,1011.35
2018-05-27T18:49:55.457Z,1011.32
2018-05-27T18:54:52.355Z,1011.47
2018-05-27T18:59:48.018Z,1011.40
2018-05-27T19:04:44.240Z,1011.47
2018-05-27T19:09:40.137Z,1011.61
2018-05-27T19:14:36.209Z,1011.41
2018-05-27T19:19:32.208Z,1011.58
2018-05-27T19:24:27.873Z,1011.58
2018-05-27T19:29:23.764Z,1011.64
2018-05-27T19:34:19.776Z,1011.57
2018-05-27T19:39:16.090Z,1011.46
2018-05-27T19:44:13.018Z,1011.65
2018-05-27T19:49:09.013Z,1011.72
2018-05-27T19:54:05.037Z,1011.69
2018-05-27T19:59:01.821Z,1011.68
2018-05-27T20:03:57.483Z,1011.61
2018-05-27T20:08:53.359Z,1011.43
2018-05-27T20:13:50.205Z,1011.33
2018-05-27T20:18:45.632Z,1011.47
2018-05-27T20:23:42.386Z,1011.41
2018-05-27T20:28:39.153Z,1011.31
2018-05-27T20:33:35.171Z,1011.26
2018-05-27T20:38:31.017Z,1011.15
2018-05-27T20:43:26.839Z,1011.08
2018-05-27T20:48:23.655Z,1011.02
2018-05-27T20:53:20.374Z,1011.06
2018-05-27T20:58:15.908Z,1011.21
2018-05-27T21:03:11.867Z,1011.28
2018-05-27T21:08:07.764Z,1011.43
2018-05-27T21:13:03.987Z,1011.26
2018-05-27T21:17:59.970Z,1011.26
2018-05-27T21:22:55.639Z,1011.37
2018-05-27T21:27:51.557Z,1011.35
2018-05-27T21:32:47.378Z,1011.32
2018-05-27T21:37:43.240Z,1011.42
2018-05-27T21:42:39.193Z,1011.48
2018-05-27T21:47:35.211Z,1011.56
2018-05-27T21:52:31.141Z,1011.48
2018-05-27T21:57:28.095Z,1011.50
2018-05-27T22:02:24.803Z,1011.62
2018-05-27T22:07:21.465Z,1011.53
2018-05-27T22:12:17.167Z,1011.60
2018-05-27T22:17:13.958Z,1011.64
2018-05-27T22:22:09.774Z,1011.53
2018-05-27T22:27:05.688Z,1011.49
2018-05-27T22:32:01.554Z,1011.55
2018-05-27T22:36:57.372Z,1011.46
2018-05-27T22:41:53.257Z,1011.51
2018-05-27T22:46:50.169Z,1011.52
2018-05-27T22:51:46.740Z,1011.50
2018-05-27T22:56:42.407Z,1011.42
2018-05-27T23:01:38.371Z,1011.18
2018-05-27T23:06:34.241Z,1011.23
2018-05-27T23:11:30.092Z,1011.14
2018-05-27T23:16:25.988Z,1011.21
2018-05-27T23:21:22.262Z,1011.21
2018-05-27T23:26:18.213Z,1011.24
2018-05-27T23:31:14.023Z,1011.09
2018-05-27T23:36:10.472Z,1011.08
2018-05-27T23:41:06.633Z,1011.14
2018-05-27T23:46:03.735Z,1011.14
2018-05-27T23:51:00.296Z,1011.17
2018-05-27T23:55:55.804Z,1011.26
